sensor_id;sensor_type;location;lat;lon;timestamp;pressure;altitude;pressure_sealevel;temperature;humidity
50364;BME280;36272;59.400;17.982;2023-01-29T00:04:51;101016.09;;;2.17;93.50
50364;BME280;36272;59.400;17.982;2023-01-29T00:09:53;101016.28;;;2.24;93.48
50364;BME280;36272;59.400;17.982;2023-01-29T00:14:54;101009.16;;;2.25;93.16
50364;BME280;36272;59.400;17.982;2023-01-29T00:19:56;101026.50;;;2.27;93.32
50364;BME280;36272;59.400;17.982;2023-01-29T00:24:58;101025.69;;;2.27;93.11
50364;BME280;36272;59.400;17.982;2023-01-29T00:29:59;101014.00;;;2.29;92.91
50364;BME280;36272;59.400;17.982;2023-01-29T00:35:13;101019.28;;;2.29;92.85
50364;BME280;36272;59.400;17.982;2023-01-29T00:40:17;101031.94;;;2.26;93.17
50364;BME280;36272;59.400;17.982;2023-01-29T00:45:19;101019.28;;;2.29;93.17
50364;BME280;36272;59.400;17.982;2023-01-29T00:50:20;101014.78;;;2.30;93.13
50364;BME280;36272;59.400;17.982;2023-01-29T00:55:22;101028.97;;;2.29;92.91
50364;BME280;36272;59.400;17.982;2023-01-29T01:00:29;101006.88;;;2.30;92.77
50364;BME280;36272;59.400;17.982;2023-01-29T01:05:30;101005.09;;;2.30;92.72
50364;BME280;36272;59.400;17.982;2023-01-29T01:10:32;101005.22;;;2.29;92.71
50364;BME280;36272;59.400;17.982;2023-01-29T01:15:36;100997.13;;;2.22;92.71
50364;BME280;36272;59.400;17.982;2023-01-29T01:20:38;101001.78;;;2.28;92.53
50364;BME280;36272;59.400;17.982;2023-01-29T01:25:40;100997.78;;;2.24;92.35
50364;BME280;36272;59.400;17.982;2023-01-29T01:30:42;100991.22;;;2.28;92.20
50364;BME280;36272;59.400;17.982;2023-01-29T01:35:43;100977.66;;;2.23;92.37
50364;BME280;36272;59.400;17.982;2023-01-29T01:40:45;100974.03;;;2.24;92.45
50364;BME280;36272;59.400;17.982;2023-01-29T01:45:47;100966.13;;;2.24;91.92
50364;BME280;36272;59.400;17.982;2023-01-29T01:50:54;100955.22;;;2.19;92.06
50364;BME280;36272;59.400;17.982;2023-01-29T01:56:04;100939.69;;;2.16;91.96
50364;BME280;36272;59.400;17.982;2023-01-29T02:01:08;100919.22;;;2.10;91.83
50364;BME280;36272;59.400;17.982;2023-01-29T02:06:10;100922.03;;;2.08;91.86
50364;BME280;36272;59.400;17.982;2023-01-29T02:11:30;100913.59;;;2.04;92.06
50364;BME280;36272;59.400;17.982;2023-01-29T02:16:34;100888.38;;;2.02;92.41
50364;BME280;36272;59.400;17.982;2023-01-29T02:22:05;100888.41;;;2.10;92.63
50364;BME280;36272;59.400;17.982;2023-01-29T02:27:18;100891.19;;;2.08;92.34
50364;BME280;36272;59.400;17.982;2023-01-29T02:54:03;100860.16;;;1.94;92.70
50364;BME280;36272;59.400;17.982;2023-01-29T02:59:24;100845.97;;;1.95;92.63
50364;BME280;36272;59.400;17.982;2023-01-29T03:04:31;100843.00;;;1.90;92.35
50364;BME280;36272;59.400;17.982;2023-01-29T03:09:37;100848.41;;;1.88;92.48
50364;BME280;36272;59.400;17.982;2023-01-29T03:14:42;100835.41;;;1.87;92.33
50364;BME280;36272;59.400;17.982;2023-01-29T03:20:06;100829.16;;;1.88;92.34
50364;BME280;36272;59.400;17.982;2023-01-29T03:25:10;100822.34;;;1.85;92.14
50364;BME280;36272;59.400;17.982;2023-01-29T03:30:40;100815.13;;;1.87;91.86
50364;BME280;36272;59.400;17.982;2023-01-29T03:36:11;100817.25;;;1.84;92.17
50364;BME280;36272;59.400;17.982;2023-01-29T03:41:24;100809.66;;;1.81;92.37
50364;BME280;36272;59.400;17.982;2023-01-29T03:46:34;100806.84;;;1.82;92.37
50364;BME280;36272;59.400;17.982;2023-01-29T04:01:58;100787.91;;;1.78;92.99
50364;BME280;36272;59.400;17.982;2023-01-29T04:07:10;100787.41;;;1.83;93.01
50364;BME280;36272;59.400;17.982;2023-01-29T04:12:15;100778.50;;;1.84;93.00
50364;BME280;36272;59.400;17.982;2023-01-29T04:17:29;100786.59;;;1.91;93.28
50364;BME280;36272;59.400;17.982;2023-01-29T04:22:36;100786.09;;;1.96;92.75
50364;BME280;36272;59.400;17.982;2023-01-29T04:33:16;100788.94;;;1.94;93.02
50364;BME280;36272;59.400;17.982;2023-01-29T04:43:59;100743.25;;;2.02;93.03
50364;BME280;36272;59.400;17.982;2023-01-29T04:49:15;100739.09;;;2.07;93.12
50364;BME280;36272;59.400;17.982;2023-01-29T04:54:25;100718.00;;;2.07;93.01
50364;BME280;36272;59.400;17.982;2023-01-29T04:59:34;100702.34;;;2.06;92.99
50364;BME280;36272;59.400;17.982;2023-01-29T05:04:38;100701.84;;;2.02;92.59
50364;BME280;36272;59.400;17.982;2023-01-29T05:09:43;100688.63;;;2.02;92.83
50364;BME280;36272;59.400;17.982;2023-01-29T05:14:49;100679.59;;;2.05;92.75
50364;BME280;36272;59.400;17.982;2023-01-29T05:19:51;100669.69;;;2.07;92.67
50364;BME280;36272;59.400;17.982;2023-01-29T05:24:54;100647.41;;;2.10;92.56
50364;BME280;36272;59.400;17.982;2023-01-29T05:29:56;100634.53;;;2.06;92.51
50364;BME280;36272;59.400;17.982;2023-01-29T05:34:58;100628.94;;;2.10;92.71
50364;BME280;36272;59.400;17.982;2023-01-29T05:40:02;100610.31;;;2.03;92.68
50364;BME280;36272;59.400;17.982;2023-01-29T05:45:04;100606.03;;;2.02;92.97
50364;BME280;36272;59.400;17.982;2023-01-29T05:50:07;100599.56;;;2.04;92.91
50364;BME280;36272;59.400;17.982;2023-01-29T05:55:09;100582.09;;;2.03;92.91
50364;BME280;36272;59.400;17.982;2023-01-29T06:00:11;100589.72;;;1.98;92.96
50364;BME280;36272;59.400;17.982;2023-01-29T06:05:13;100573.53;;;2.01;92.84
50364;BME280;36272;59.400;17.982;2023-01-29T06:10:16;100574.19;;;2.03;93.14
50364;BME280;36272;59.400;17.982;2023-01-29T06:15:18;100565.94;;;2.06;93.11
50364;BME280;36272;59.400;17.982;2023-01-29T06:20:23;100569.56;;;2.05;92.89
50364;BME280;36272;59.400;17.982;2023-01-29T06:25:25;100594.63;;;2.01;92.97
50364;BME280;36272;59.400;17.982;2023-01-29T06:30:27;100596.28;;;2.02;93.16
50364;BME280;36272;59.400;17.982;2023-01-29T06:35:30;100575.69;;;1.98;93.29
50364;BME280;36272;59.400;17.982;2023-01-29T06:40:32;100573.72;;;2.00;92.96
50364;BME280;36272;59.400;17.982;2023-01-29T06:45:33;100560.19;;;2.03;92.92
50364;BME280;36272;59.400;17.982;2023-01-29T06:50:36;100549.13;;;1.99;93.19
50364;BME280;36272;59.400;17.982;2023-01-29T06:55:38;100549.13;;;1.99;93.46
50364;BME280;36272;59.400;17.982;2023-01-29T07:00:41;100522.94;;;1.98;93.28
50364;BME280;36272;59.400;17.982;2023-01-29T07:05:50;100512.06;;;1.92;93.04
50364;BME280;36272;59.400;17.982;2023-01-29T07:10:57;100510.09;;;1.86;93.10
50364;BME280;36272;59.400;17.982;2023-01-29T07:16:01;100507.63;;;1.85;93.40
50364;BME280;36272;59.400;17.982;2023-01-29T07:21:04;100486.88;;;1.82;93.53
50364;BME280;36272;59.400;17.982;2023-01-29T07:26:12;100480.09;;;1.79;93.70
50364;BME280;36272;59.400;17.982;2023-01-29T07:31:14;100464.59;;;1.84;93.13
50364;BME280;36272;59.400;17.982;2023-01-29T07:36:15;100466.09;;;1.87;93.35
50364;BME280;36272;59.400;17.982;2023-01-29T07:41:17;100469.84;;;1.92;93.26
50364;BME280;36272;59.400;17.982;2023-01-29T07:46:19;100470.50;;;1.95;93.28
50364;BME280;36272;59.400;17.982;2023-01-29T07:51:21;100466.88;;;1.96;93.07
50364;BME280;36272;59.400;17.982;2023-01-29T07:56:29;100450.88;;;1.97;93.38
50364;BME280;36272;59.400;17.982;2023-01-29T08:01:39;100441.59;;;2.01;93.02
50364;BME280;36272;59.400;17.982;2023-01-29T08:06:41;100421.78;;;2.05;93.08
50364;BME280;36272;59.400;17.982;2023-01-29T08:11:43;100422.75;;;2.13;92.77
50364;BME280;36272;59.400;17.982;2023-01-29T08:16:47;100411.50;;;2.19;92.51
50364;BME280;36272;59.400;17.982;2023-01-29T08:21:49;100395.66;;;2.19;92.89
50364;BME280;36272;59.400;17.982;2023-01-29T08:26:50;100393.34;;;2.24;92.59
50364;BME280;36272;59.400;17.982;2023-01-29T08:31:57;100373.84;;;2.25;93.29
50364;BME280;36272;59.400;17.982;2023-01-29T08:36:59;100380.53;;;2.36;92.83
50364;BME280;36272;59.400;17.982;2023-01-29T08:42:00;100369.28;;;2.42;92.58
50364;BME280;36272;59.400;17.982;2023-01-29T08:47:02;100376.94;;;2.52;92.43
50364;BME280;36272;59.400;17.982;2023-01-29T08:52:04;100346.75;;;2.55;92.57
50364;BME280;36272;59.400;17.982;2023-01-29T08:57:06;100353.41;;;2.65;92.20
50364;BME280;36272;59.400;17.982;2023-01-29T09:02:10;100334.38;;;2.70;92.01
50364;BME280;36272;59.400;17.982;2023-01-29T09:07:12;100343.59;;;2.74;93.63
50364;BME280;36272;59.400;17.982;2023-01-29T09:12:13;100349.06;;;2.73;94.55
50364;BME280;36272;59.400;17.982;2023-01-29T09:17:15;100325.09;;;2.74;94.84
50364;BME280;36272;59.400;17.982;2023-01-29T09:22:18;100326.75;;;2.75;94.81
50364;BME280;36272;59.400;17.982;2023-01-29T09:27:22;100345.88;;;2.77;94.50
50364;BME280;36272;59.400;17.982;2023-01-29T09:32:24;100324.75;;;2.77;94.81
50364;BME280;36272;59.400;17.982;2023-01-29T09:37:26;100313.81;;;2.80;94.53
50364;BME280;36272;59.400;17.982;2023-01-29T09:42:41;100289.75;;;2.90;94.41
50364;BME280;36272;59.400;17.982;2023-01-29T09:47:46;100282.00;;;3.19;93.27
50364;BME280;36272;59.400;17.982;2023-01-29T09:53:03;100264.25;;;2.97;93.99
50364;BME280;36272;59.400;17.982;2023-01-29T10:24:57;100225.69;;;3.18;93.18
50364;BME280;36272;59.400;17.982;2023-01-29T10:30:07;100218.03;;;3.23;92.69
50364;BME280;36272;59.400;17.982;2023-01-29T10:35:21;100211.00;;;3.31;92.49
50364;BME280;36272;59.400;17.982;2023-01-29T10:40:38;100188.81;;;3.32;92.46
50364;BME280;36272;59.400;17.982;2023-01-29T10:45:47;100192.09;;;3.34;91.76
50364;BME280;36272;59.400;17.982;2023-01-29T10:50:54;100161.63;;;3.38;91.74
50364;BME280;36272;59.400;17.982;2023-01-29T11:01:28;100146.28;;;3.48;91.22
50364;BME280;36272;59.400;17.982;2023-01-29T11:06:35;100123.75;;;3.52;91.15
50364;BME280;36272;59.400;17.982;2023-01-29T11:16:56;100120.47;;;3.72;90.38
50364;BME280;36272;59.400;17.982;2023-01-29T11:22:00;100105.44;;;3.79;90.31
50364;BME280;36272;59.400;17.982;2023-01-29T11:27:20;100085.97;;;3.87;90.13
50364;BME280;36272;59.400;17.982;2023-01-29T11:32:25;100068.31;;;3.94;89.72
50364;BME280;36272;59.400;17.982;2023-01-29T11:37:46;100035.59;;;4.09;89.53
50364;BME280;36272;59.400;17.982;2023-01-29T11:42:49;100024.63;;;4.12;89.02
50364;BME280;36272;59.400;17.982;2023-01-29T11:47:55;100006.94;;;4.19;88.57
50364;BME280;36272;59.400;17.982;2023-01-29T11:53:00;100003.31;;;4.27;88.59
50364;BME280;36272;59.400;17.982;2023-01-29T11:58:11;99987.03;;;4.30;88.53
50364;BME280;36272;59.400;17.982;2023-01-29T12:03:34;99966.69;;;4.37;88.70
50364;BME280;36272;59.400;17.982;2023-01-29T12:08:39;99959.41;;;4.53;87.75
50364;BME280;36272;59.400;17.982;2023-01-29T12:13:41;99928.66;;;4.79;86.88
50364;BME280;36272;59.400;17.982;2023-01-29T12:18:56;99916.41;;;4.98;86.42
50364;BME280;36272;59.400;17.982;2023-01-29T12:24:30;99907.88;;;5.02;86.35
50364;BME280;36272;59.400;17.982;2023-01-29T12:35:00;99873.97;;;5.25;85.25
50364;BME280;36272;59.400;17.982;2023-01-29T12:40:13;99850.63;;;5.54;84.71
50364;BME280;36272;59.400;17.982;2023-01-29T12:45:21;99839.59;;;5.57;83.98
50364;BME280;36272;59.400;17.982;2023-01-29T12:50:34;99833.13;;;5.39;84.70
50364;BME280;36272;59.400;17.982;2023-01-29T12:55:42;99825.84;;;5.21;85.04
50364;BME280;36272;59.400;17.982;2023-01-29T13:00:47;99811.78;;;5.14;85.38
50364;BME280;36272;59.400;17.982;2023-01-29T13:06:00;99808.75;;;5.10;85.48
50364;BME280;36272;59.400;17.982;2023-01-29T13:11:09;99807.13;;;5.02;85.59
50364;BME280;36272;59.400;17.982;2023-01-29T13:16:14;99807.75;;;4.98;85.96
50364;BME280;36272;59.400;17.982;2023-01-29T13:21:25;99776.16;;;4.89;86.20
50364;BME280;36272;59.400;17.982;2023-01-29T13:26:27;99769.66;;;4.92;86.61
50364;BME280;36272;59.400;17.982;2023-01-29T13:44:32;99731.75;;;4.85;86.78
50364;BME280;36272;59.400;17.982;2023-01-29T13:55:38;99707.66;;;4.93;87.29
50364;BME280;36272;59.400;17.982;2023-01-29T14:00:52;99681.97;;;4.94;87.05
50364;BME280;36272;59.400;17.982;2023-01-29T14:05:58;99658.13;;;4.94;86.93
50364;BME280;36272;59.400;17.982;2023-01-29T14:21:39;99622.03;;;4.99;87.38
50364;BME280;36272;59.400;17.982;2023-01-29T14:26:48;99625.88;;;5.03;87.27
50364;BME280;36272;59.400;17.982;2023-01-29T14:37:50;99586.28;;;5.09;86.66
50364;BME280;36272;59.400;17.982;2023-01-29T14:43:15;99575.22;;;5.18;86.88
50364;BME280;36272;59.400;17.982;2023-01-29T14:48:50;99570.09;;;5.17;87.25
50364;BME280;36272;59.400;17.982;2023-01-29T14:54:05;99560.53;;;5.16;86.79
50364;BME280;36272;59.400;17.982;2023-01-29T14:59:32;99551.56;;;5.17;86.72
50364;BME280;36272;59.400;17.982;2023-01-29T15:04:46;99528.88;;;5.21;86.92
50364;BME280;36272;59.400;17.982;2023-01-29T15:10:16;99514.78;;;5.27;86.57
50364;BME280;36272;59.400;17.982;2023-01-29T15:15:42;99486.44;;;5.28;86.68
50364;BME280;36272;59.400;17.982;2023-01-29T15:20:44;99480.31;;;5.27;86.37
50364;BME280;36272;59.400;17.982;2023-01-29T15:25:48;99446.50;;;5.23;86.37
50364;BME280;36272;59.400;17.982;2023-01-29T15:30:56;99437.88;;;5.27;86.44
50364;BME280;36272;59.400;17.982;2023-01-29T15:36:03;99422.81;;;5.28;86.45
50364;BME280;36272;59.400;17.982;2023-01-29T15:41:19;99417.41;;;5.34;86.44
50364;BME280;36272;59.400;17.982;2023-01-29T15:46:27;99405.78;;;5.35;86.21
50364;BME280;36272;59.400;17.982;2023-01-29T15:57:58;99368.00;;;5.40;86.27
50364;BME280;36272;59.400;17.982;2023-01-29T16:03:12;99352.38;;;5.50;86.23
50364;BME280;36272;59.400;17.982;2023-01-29T16:08:15;99343.75;;;5.55;85.75
50364;BME280;36272;59.400;17.982;2023-01-29T16:13:23;99326.34;;;5.59;85.83
50364;BME280;36272;59.400;17.982;2023-01-29T16:18:30;99310.00;;;5.62;85.64
50364;BME280;36272;59.400;17.982;2023-01-29T16:23:35;99275.59;;;5.86;85.29
50364;BME280;36272;59.400;17.982;2023-01-29T16:28:43;99248.53;;;5.65;85.79
50364;BME280;36272;59.400;17.982;2023-01-29T16:33:46;99245.66;;;5.67;85.93
50364;BME280;36272;59.400;17.982;2023-01-29T16:38:54;99224.19;;;5.69;85.67
50364;BME280;36272;59.400;17.982;2023-01-29T17:07:50;99164.72;;;5.88;85.54
50364;BME280;36272;59.400;17.982;2023-01-29T17:13:00;99130.94;;;5.95;85.70
50364;BME280;36272;59.400;17.982;2023-01-29T17:18:10;99117.56;;;6.02;85.50
50364;BME280;36272;59.400;17.982;2023-01-29T17:23:19;99109.34;;;6.04;85.52
50364;BME280;36272;59.400;17.982;2023-01-29T17:28:21;99101.41;;;6.04;85.73
50364;BME280;36272;59.400;17.982;2023-01-29T17:33:24;99062.41;;;6.04;85.74
50364;BME280;36272;59.400;17.982;2023-01-29T17:38:26;99059.63;;;6.11;85.87
50364;BME280;36272;59.400;17.982;2023-01-29T17:43:27;99033.41;;;6.15;85.70
50364;BME280;36272;59.400;17.982;2023-01-29T17:48:29;99025.22;;;6.16;85.74
50364;BME280;36272;59.400;17.982;2023-01-29T17:53:31;99013.56;;;6.17;85.81
50364;BME280;36272;59.400;17.982;2023-01-29T17:58:33;98992.88;;;6.19;85.79
50364;BME280;36272;59.400;17.982;2023-01-29T18:03:35;98976.72;;;6.21;85.96
50364;BME280;36272;59.400;17.982;2023-01-29T18:08:37;98951.19;;;6.20;86.05
50364;BME280;36272;59.400;17.982;2023-01-29T18:13:40;98945.09;;;6.19;86.34
50364;BME280;36272;59.400;17.982;2023-01-29T18:18:42;98963.22;;;6.22;86.53
50364;BME280;36272;59.400;17.982;2023-01-29T18:23:44;98945.41;;;6.23;86.51
50364;BME280;36272;59.400;17.982;2023-01-29T18:28:45;98911.25;;;6.27;86.64
50364;BME280;36272;59.400;17.982;2023-01-29T18:33:47;98898.75;;;6.27;86.58
50364;BME280;36272;59.400;17.982;2023-01-29T18:38:49;98883.66;;;6.28;86.82
50364;BME280;36272;59.400;17.982;2023-01-29T18:43:51;98869.91;;;6.31;87.06
50364;BME280;36272;59.400;17.982;2023-01-29T18:48:53;98887.19;;;6.33;87.00
50364;BME280;36272;59.400;17.982;2023-01-29T18:53:54;98882.22;;;6.37;87.24
50364;BME280;36272;59.400;17.982;2023-01-29T18:58:56;98895.50;;;6.37;86.97
50364;BME280;36272;59.400;17.982;2023-01-29T19:03:58;98869.25;;;6.40;87.06
50364;BME280;36272;59.400;17.982;2023-01-29T19:09:00;98836.34;;;6.42;86.95
50364;BME280;36272;59.400;17.982;2023-01-29T19:14:02;98824.13;;;6.40;87.01
50364;BME280;36272;59.400;17.982;2023-01-29T19:19:03;98777.09;;;6.41;87.16
50364;BME280;36272;59.400;17.982;2023-01-29T19:24:05;98775.84;;;6.44;87.10
50364;BME280;36272;59.400;17.982;2023-01-29T19:29:10;98771.66;;;6.48;86.79
50364;BME280;36272;59.400;17.982;2023-01-29T19:34:12;98750.41;;;6.48;87.05
50364;BME280;36272;59.400;17.982;2023-01-29T19:39:14;98759.97;;;6.49;86.83
50364;BME280;36272;59.400;17.982;2023-01-29T19:44:16;98745.38;;;6.51;86.90
50364;BME280;36272;59.400;17.982;2023-01-29T19:49:18;98729.22;;;6.53;86.76
50364;BME280;36272;59.400;17.982;2023-01-29T19:54:19;98716.50;;;6.55;87.12
50364;BME280;36272;59.400;17.982;2023-01-29T19:59:22;98701.91;;;6.58;87.04
50364;BME280;36272;59.400;17.982;2023-01-29T20:04:23;98690.25;;;6.59;86.75
50364;BME280;36272;59.400;17.982;2023-01-29T20:09:27;98666.66;;;6.62;87.06
50364;BME280;36272;59.400;17.982;2023-01-29T20:14:30;98649.91;;;6.62;86.69
50364;BME280;36272;59.400;17.982;2023-01-29T20:19:32;98616.72;;;6.64;86.58
50364;BME280;36272;59.400;17.982;2023-01-29T20:24:35;98602.16;;;6.67;86.73
50364;BME280;36272;59.400;17.982;2023-01-29T20:29:39;98599.00;;;6.70;86.11
50364;BME280;36272;59.400;17.982;2023-01-29T20:34:41;98586.28;;;6.72;86.26
50364;BME280;36272;59.400;17.982;2023-01-29T20:39:43;98591.09;;;6.75;86.60
50364;BME280;36272;59.400;17.982;2023-01-29T20:44:44;98600.75;;;6.81;86.62
50364;BME280;36272;59.400;17.982;2023-01-29T20:49:46;98573.63;;;6.84;86.34
50364;BME280;36272;59.400;17.982;2023-01-29T20:54:48;98572.91;;;6.89;86.31
50364;BME280;36272;59.400;17.982;2023-01-29T20:59:49;98551.38;;;6.91;85.96
50364;BME280;36272;59.400;17.982;2023-01-29T21:04:51;98554.09;;;6.96;85.91
50364;BME280;36272;59.400;17.982;2023-01-29T21:09:53;98548.53;;;6.97;86.14
50364;BME280;36272;59.400;17.982;2023-01-29T21:14:54;98525.72;;;7.02;85.88
50364;BME280;36272;59.400;17.982;2023-01-29T21:19:56;98506.84;;;7.03;85.76
50364;BME280;36272;59.400;17.982;2023-01-29T21:24:58;98502.63;;;7.07;85.59
50364;BME280;36272;59.400;17.982;2023-01-29T21:29:59;98491.50;;;7.10;85.67
50364;BME280;36272;59.400;17.982;2023-01-29T21:35:01;98499.75;;;7.14;85.67
50364;BME280;36272;59.400;17.982;2023-01-29T21:40:04;98479.34;;;7.20;85.59
50364;BME280;36272;59.400;17.982;2023-01-29T21:45:07;98471.09;;;7.21;85.09
50364;BME280;36272;59.400;17.982;2023-01-29T21:50:09;98465.28;;;7.24;85.27
50364;BME280;36272;59.400;17.982;2023-01-29T21:55:11;98461.84;;;7.24;85.19
50364;BME280;36272;59.400;17.982;2023-01-29T22:00:13;98445.06;;;7.23;85.22
50364;BME280;36272;59.400;17.982;2023-01-29T22:05:14;98425.16;;;7.26;85.35
50364;BME280;36272;59.400;17.982;2023-01-29T22:10:16;98418.22;;;7.25;85.34
50364;BME280;36272;59.400;17.982;2023-01-29T22:15:18;98399.06;;;7.23;85.51
50364;BME280;36272;59.400;17.982;2023-01-29T22:20:20;98390.25;;;7.17;85.67
50364;BME280;36272;59.400;17.982;2023-01-29T22:25:30;98350.06;;;7.08;86.15
50364;BME280;36272;59.400;17.982;2023-01-29T22:30:32;98346.84;;;7.06;86.21
50364;BME280;36272;59.400;17.982;2023-01-29T22:35:34;98319.44;;;7.01;86.36
50364;BME280;36272;59.400;17.982;2023-01-29T22:40:35;98304.84;;;7.03;86.33
50364;BME280;36272;59.400;17.982;2023-01-29T22:45:38;98277.75;;;7.06;86.24
50364;BME280;36272;59.400;17.982;2023-01-29T22:50:40;98255.44;;;7.12;85.99
50364;BME280;36272;59.400;17.982;2023-01-29T22:55:42;98254.41;;;7.19;85.50
50364;BME280;36272;59.400;17.982;2023-01-29T23:00:43;98217.72;;;7.21;85.41
50364;BME280;36272;59.400;17.982;2023-01-29T23:05:45;98194.88;;;7.25;85.28
50364;BME280;36272;59.400;17.982;2023-01-29T23:10:46;98208.69;;;7.32;85.32
50364;BME280;36272;59.400;17.982;2023-01-29T23:15:57;98178.66;;;7.32;85.07
50364;BME280;36272;59.400;17.982;2023-01-29T23:20:59;98155.28;;;7.34;84.45
50364;BME280;36272;59.400;17.982;2023-01-29T23:26:03;98138.50;;;7.33;84.23
50364;BME280;36272;59.400;17.982;2023-01-29T23:31:23;98141.44;;;7.37;84.63
50364;BME280;36272;59.400;17.982;2023-01-29T23:36:25;98103.41;;;7.36;84.49
50364;BME280;36272;59.400;17.982;2023-01-29T23:41:27;98093.31;;;7.38;84.56
50364;BME280;36272;59.400;17.982;2023-01-29T23:46:29;98090.41;;;7.40;84.28
50364;BME280;36272;59.400;17.982;2023-01-29T23:51:31;98065.13;;;7.37;84.14
50364;BME280;36272;59.400;17.982;2023-01-29T23:56:33;98074.44;;;7.40;84.20
